Aviation Digital Data Service (ADDS)

Output produced by METARs form (1152 UTC 24 November 2014)
found at http://www.aviationweather.gov/adds/metars/
 
KDEC 241137Z 2412/2512 28022G32KT 5SM -RASN BR OVC015 
     TEMPO 2412/2414 2SM -SN OVC008 
     FM241400 28022G32KT P6SM OVC015 
     FM242100 25016G26KT P6SM OVC015 
     FM250200 26011KT P6SM OVC020